Time;durP1;ratioP1;P1;durP2;ratioP2;P2;SDS_P1;SDS_P2;PMS_P1;PMS_P2;Temp;Humidity;BMP_temperature;BMP_pressure;BME280_temperature;BME280_humidity;BME280_pressure;Samples;Min_cycle;Max_cycle;Signal;HPM_P1;HPM_P2
2022/06/21 04:08:57;;;;;;;5.97;2.30;;;;;;;21.43;53.18;99960.81;5606859;31;118077;-53
2022/06/21 04:12:00;;;;;;;;;;;;;;;21.43;53.18;99960.81;5604294;31;33392;-53
2022/06/21 04:15:05;;;;;;;6.35;2.47;;;;;;;20.91;52.73;99981.22;5604429;31;34429;-53
2022/06/21 04:18:16;;;;;;;2.90;2.30;;;;;;;21.04;52.77;99988.88;5603920;31;34246;-53
2022/06/21 04:21:30;;;;;;;3.00;2.08;;;;;;;21.07;52.65;99977.28;5604124;31;34237;-53
2022/06/21 04:24:37;;;;;;;4.65;1.90;;;;;;;20.98;51.28;99993.06;5603716;31;33667;-53
2022/06/21 04:27:59;;;;;;;2.92;1.65;;;;;;;21.02;50.90;99979.50;5603677;31;34103;-53
2022/06/21 04:31:29;;;;;;;4.30;1.73;;;;;;;20.94;50.18;99988.69;5584362;31;34353;-52
2022/06/21 04:34:35;;;;;;;2.42;1.77;;;;;;;20.96;50.94;99994.56;5586229;31;34161;-53
2022/06/21 04:37:37;;;;;;;;;;;;;;;20.97;48.52;99990.69;5593804;31;34179;-54
2022/06/21 04:40:47;;;;;;;2.03;1.70;;;;;;;21.02;51.97;99996.62;5587316;31;33906;-53
2022/06/21 04:44:17;;;;;;;3.87;1.83;;;;;;;21.07;47.68;99998.28;5583824;31;33706;-53
2022/06/21 04:47:28;;;;;;;3.15;1.50;;;;;;;21.14;48.40;99998.41;5603491;31;33648;-53
2022/06/21 04:50:48;;;;;;;4.05;1.87;;;;;;;21.22;47.94;100004.78;5603670;31;33752;-53
2022/06/21 04:54:00;;;;;;;2.65;1.83;;;;;;;21.33;46.31;100017.47;5603327;31;33555;-54
2022/06/21 04:57:17;;;;;;;3.08;1.45;;;;;;;21.42;45.29;100011.81;5583496;31;33596;-53
2022/06/21 05:00:20;;;;;;;3.55;1.52;;;;;;;21.56;43.70;100003.91;5601294;31;33717;-53
2022/06/21 05:03:31;;;;;;;6.45;1.70;;;;;;;21.46;44.25;100012.69;5602415;31;34213;-55
2022/06/21 05:06:34;;;;;;;2.10;1.30;;;;;;;21.40;43.38;100018.78;5602493;31;33600;-53
2022/06/21 05:09:37;;;;;;;1.62;1.52;;;;;;;21.38;43.81;100016.41;5601980;31;34014;-54
2022/06/21 05:12:42;;;;;;;7.05;1.95;;;;;;;21.32;43.18;100006.91;5582915;32;34249;-54
2022/06/21 05:15:45;;;;;;;2.85;1.80;;;;;;;21.53;46.52;100012.81;5587525;31;33687;-53
2022/06/21 05:19:00;;;;;;;2.72;1.50;;;;;;;21.66;44.04;100018.09;5590995;31;33681;-53
2022/06/21 05:22:16;;;;;;;4.10;1.55;;;;;;;21.88;46.58;100021.94;5576483;31;34360;-53
2022/06/21 05:25:27;;;;;;;3.12;1.48;;;;;;;21.98;42.88;100022.12;5570279;32;33827;-53
2022/06/21 05:28:37;;;;;;;2.05;1.25;;;;;;;21.79;42.37;100023.00;5584573;31;34319;-53
2022/06/21 05:31:45;;;;;;;5.78;1.70;;;;;;;22.08;42.53;100014.47;5586535;31;34296;-54
2022/06/21 05:34:52;;;;;;;2.37;1.20;;;;;;;22.23;41.66;100030.72;5577803;31;33677;-53
2022/06/21 05:38:10;;;;;;;2.28;1.20;;;;;;;22.17;40.07;100025.94;5570040;32;34663;-53
2022/06/21 05:41:29;;;;;;;2.10;1.30;;;;;;;22.13;39.02;100023.13;5570278;32;34421;-54
2022/06/21 05:44:35;;;;;;;5.75;1.30;;;;;;;22.19;38.74;100027.16;5587827;31;34311;-53
2022/06/21 05:47:42;;;;;;;;;;;;;;;22.19;38.31;100018.97;5589597;31;33362;-54
2022/06/21 05:50:51;;;;;;;7.35;1.40;;;;;;;22.41;37.43;100032.94;5579952;31;33976;-54
2022/06/21 05:53:58;;;;;;;2.00;1.20;;;;;;;22.54;38.62;100025.31;5570299;31;33642;-54
2022/06/21 05:57:02;;;;;;;5.75;1.40;;;;;;;22.35;36.36;100032.47;5577484;31;32635;-54
2022/06/21 06:00:06;;;;;;;3.62;1.30;;;;;;;22.35;36.82;100018.81;5585605;31;33582;-54
2022/06/21 06:03:26;;;;;;;10.45;1.50;;;;;;;22.43;37.91;100033.34;5589274;31;33648;-53
2022/06/21 06:06:34;;;;;;;2.37;1.20;;;;;;;22.30;35.51;100023.81;5589064;31;34183;-53
2022/06/21 06:09:45;;;;;;;3.65;1.55;;;;;;;22.48;35.52;100047.50;5580914;31;34117;-54
2022/06/21 06:12:57;;;;;;;2.42;1.30;;;;;;;22.66;35.47;100033.28;5588284;31;34202;-54
2022/06/21 06:16:05;;;;;;;7.68;1.42;;;;;;;22.68;34.82;100031.75;5578993;31;34344;-53
2022/06/21 06:19:21;;;;;;;6.32;1.55;;;;;;;23.04;37.34;100048.62;5582024;31;34357;-54
2022/06/21 06:22:29;;;;;;;5.15;1.05;;;;;;;22.86;32.36;100053.06;5589164;31;34347;-53
2022/06/21 06:25:37;;;;;;;4.43;1.08;;;;;;;22.67;33.75;100043.81;5589176;31;33612;-53
2022/06/21 06:28:56;;;;;;;8.43;1.52;;;;;;;22.75;33.08;100052.94;5586060;31;34113;-53
2022/06/21 06:32:17;;;;;;;5.10;1.12;;;;;;;22.61;33.03;100083.56;5570684;31;33695;-53
2022/06/21 06:35:24;;;;;;;5.00;1.30;;;;;;;22.31;34.35;100045.25;5578342;31;33750;-53
2022/06/21 06:38:28;;;;;;;4.65;1.00;;;;;;;22.52;34.43;100051.06;5582526;31;33700;-53
2022/06/21 06:41:43;;;;;;;3.33;1.17;;;;;;;22.34;34.72;100043.75;5569446;32;33806;-53
2022/06/21 06:44:49;;;;;;;2.08;1.25;;;;;;;22.52;33.76;100042.84;5579187;31;34336;-54
2022/06/21 06:47:54;;;;;;;;;;;;;;;22.54;34.55;100060.81;5569555;32;33589;-53
2022/06/21 06:51:06;;;;;;;2.03;1.10;;;;;;;22.61;34.75;100066.38;5569446;32;33938;-53
2022/06/21 06:54:34;;;;;;;3.53;1.27;;;;;;;22.58;35.21;100064.37;5572823;31;34359;-53
2022/06/21 06:57:47;;;;;;;1.83;1.23;;;;;;;22.60;36.86;100068.31;5570262;31;33864;-54
2022/06/21 07:00:56;;;;;;;3.30;1.20;;;;;;;22.63;35.81;100064.06;5569153;32;33680;-53
2022/06/21 07:04:03;;;;;;;4.95;1.45;;;;;;;22.67;35.55;100078.56;5574588;31;33693;-53
2022/06/21 07:07:15;;;;;;;3.97;1.30;;;;;;;22.64;35.37;100063.69;5581947;31;33704;-53
2022/06/21 07:10:26;;;;;;;3.20;1.33;;;;;;;22.69;36.01;100095.38;5569042;31;33344;-54
2022/06/21 07:13:28;;;;;;;4.85;1.50;;;;;;;22.36;34.79;100077.72;5569199;31;34363;-53
2022/06/21 07:16:33;;;;;;;3.60;1.37;;;;;;;22.69;35.28;100087.19;5568848;32;33803;-53
2022/06/21 07:19:36;;;;;;;3.30;1.25;;;;;;;22.76;34.92;100087.28;5587245;31;33661;-54
2022/06/21 07:22:38;;;;;;;6.18;1.75;;;;;;;22.35;35.83;100092.56;5574507;31;33214;-53
2022/06/21 07:25:46;;;;;;;5.12;2.00;;;;;;;22.37;36.61;100081.25;5569079;32;33640;-54
2022/06/21 07:28:56;;;;;;;3.60;1.33;;;;;;;22.20;38.84;100107.12;5569017;32;34536;-53
2022/06/21 07:32:09;;;;;;;6.62;1.70;;;;;;;22.31;37.87;100093.63;5569321;32;33849;-53
2022/06/21 07:35:21;;;;;;;5.00;1.50;;;;;;;22.44;37.13;100103.97;5569164;32;33629;-53
2022/06/21 07:38:37;;;;;;;6.80;1.85;;;;;;;22.59;36.93;100112.41;5568774;32;34292;-53
2022/06/21 07:41:46;;;;;;;;;;;;;;;22.63;36.23;100105.84;5568793;32;34330;-54
2022/06/21 07:45:04;;;;;;;3.55;1.40;;;;;;;22.61;35.00;100099.94;5568722;31;34583;-54
2022/06/21 07:48:13;;;;;;;1.58;1.10;;;;;;;22.58;34.88;100105.34;5568340;32;33305;-52
2022/06/21 07:51:32;;;;;;;3.65;1.50;;;;;;;22.48;34.58;100113.03;5583168;31;33585;-53
2022/06/21 07:54:41;;;;;;;2.67;1.33;;;;;;;22.58;35.28;100108.09;5588330;31;34284;-53
2022/06/21 07:57:50;;;;;;;5.43;1.40;;;;;;;22.66;34.71;100115.25;5587783;31;33721;-53
2022/06/21 08:07:56;;;;;;;3.20;1.50;;;;;;;22.93;34.68;100107.84;5568295;31;33530;-54
2022/06/21 08:11:03;;;;;;;5.45;1.42;;;;;;;23.11;34.74;100103.41;5587424;31;33695;-53
2022/06/21 08:14:07;;;;;;;11.00;1.50;;;;;;;23.03;32.36;100118.13;5587386;31;34058;-53
2022/06/21 08:17:21;;;;;;;4.12;1.48;;;;;;;22.61;32.82;100126.47;5578869;31;34408;-53
2022/06/21 08:20:31;;;;;;;4.18;1.48;;;;;;;22.59;34.62;100110.47;5568026;31;33663;-54
2022/06/21 08:23:41;;;;;;;8.98;2.10;;;;;;;22.79;34.49;100102.94;5583428;31;33659;-53
2022/06/21 08:26:53;;;;;;;13.55;1.80;;;;;;;22.75;32.26;100113.81;5570950;31;33699;-54
2022/06/21 08:30:08;;;;;;;4.15;1.23;;;;;;;22.83;32.63;100116.66;5578201;31;33552;-53
2022/06/21 08:33:24;;;;;;;5.37;1.50;;;;;;;22.66;33.16;100121.50;5586689;31;33566;-53
2022/06/21 08:36:38;;;;;;;8.30;1.65;;;;;;;22.91;33.19;100126.53;5586104;31;33873;-54
2022/06/21 08:39:48;;;;;;;2.15;1.23;;;;;;;23.15;34.73;100136.25;5587320;31;33361;-54
2022/06/21 08:43:12;;;;;;;8.75;1.40;;;;;;;23.03;32.27;100137.25;5578639;31;33661;-53
2022/06/21 08:46:23;;;;;;;4.70;1.50;;;;;;;23.08;31.84;100134.22;5567772;32;33289;-53
2022/06/21 08:49:51;;;;;;;5.45;1.80;;;;;;;23.15;33.63;100136.25;5570323;31;33676;-53
2022/06/21 08:53:25;;;;;;;2.92;1.33;;;;;;;23.29;32.73;100133.69;5587523;31;33930;-53
2022/06/21 08:56:37;;;;;;;5.50;1.48;;;;;;;23.34;32.76;100135.31;5589936;31;33701;-54
2022/06/21 09:00:04;;;;;;;33.25;3.28;;;;;;;23.29;30.87;100127.44;5589134;31;34259;-58
2022/06/21 09:03:24;;;;;;;6.47;1.60;;;;;;;23.33;31.32;100129.06;5576175;31;34330;-59
2022/06/21 09:06:55;;;;;;;5.93;1.83;;;;;;;23.35;32.48;100134.94;5589614;31;33782;-59
2022/06/21 13:04:12;;;;;;;6.82;1.35;;;;;;;24.78;28.20;100108.88;5574671;31;105837;-58
2022/06/21 13:07:50;;;;;;;3.22;1.40;;;;;;;24.71;28.65;100100.63;5583315;32;33457;-58
2022/06/21 13:11:30;;;;;;;4.72;1.52;;;;;;;24.67;29.28;100109.97;5541374;31;34378;-58
2022/06/21 13:14:40;;;;;;;4.53;1.35;;;;;;;24.77;29.66;100098.31;5582005;32;33685;-59
2022/06/21 13:17:55;;;;;;;5.28;1.48;;;;;;;24.89;30.48;100099.94;5577072;31;33156;-58
2022/06/21 13:21:06;;;;;;;3.33;1.50;;;;;;;24.94;30.04;100102.31;5563016;32;34396;-58
2022/06/21 13:24:39;;;;;;;5.50;1.85;;;;;;;25.01;30.35;100086.69;5562774;32;34221;-58
2022/06/21 13:27:59;;;;;;;2.90;1.55;;;;;;;25.20;30.48;100080.13;5535238;32;34239;-58
2022/06/21 13:31:17;;;;;;;5.55;1.73;;;;;;;25.29;30.09;100088.75;5549508;32;33649;-58
2022/06/21 13:34:26;;;;;;;3.55;1.48;;;;;;;25.20;29.58;100090.28;5550096;32;33738;-58
2022/06/21 13:37:38;;;;;;;4.50;1.20;;;;;;;25.23;29.76;100095.00;5549967;32;33228;-58
2022/06/21 13:40:54;;;;;;;7.15;1.40;;;;;;;25.22;30.25;100094.22;5550146;32;34347;-58
2022/06/21 13:43:57;;;;;;;;;;;;;;;25.29;30.02;100104.44;5550875;32;33669;-58
2022/06/21 13:47:05;;;;;;;6.10;1.42;;;;;;;25.31;30.57;100115.81;5549035;32;34436;-58
2022/06/21 13:50:29;;;;;;;4.62;1.30;;;;;;;25.24;31.69;100113.84;5547843;32;33752;-59
2022/06/21 13:53:44;;;;;;;4.80;1.30;;;;;;;25.26;29.84;100100.50;5550446;32;34290;-59
2022/06/21 13:56:54;;;;;;;5.90;1.53;;;;;;;25.24;29.39;100105.59;5549914;32;34299;-59
2022/06/21 13:59:56;;;;;;;3.05;1.30;;;;;;;25.25;29.74;100109.13;5530573;32;34485;-59
2022/06/21 14:03:24;;;;;;;3.10;1.17;;;;;;;25.33;30.00;100093.47;5547631;32;34216;-58
2022/06/21 14:06:57;;;;;;;14.55;1.65;;;;;;;25.42;29.50;100105.66;5549604;32;34298;-58
2022/06/21 14:10:33;;;;;;;3.47;1.42;;;;;;;25.35;29.72;100104.84;5550191;32;34332;-58
2022/06/21 14:14:07;;;;;;;3.85;1.23;;;;;;;25.24;28.89;100086.41;5547674;32;33775;-58
2022/06/21 14:17:24;;;;;;;2.67;1.27;;;;;;;25.24;28.96;100078.19;5538619;32;33698;-58
2022/06/21 14:20:44;;;;;;;8.77;1.42;;;;;;;25.30;29.06;100082.13;5549745;32;34288;-58
2022/06/21 14:24:06;;;;;;;6.57;1.30;;;;;;;25.34;28.05;100086.84;5550148;32;33546;-58
2022/06/21 14:27:46;;;;;;;3.50;1.30;;;;;;;25.22;28.62;100077.75;5549736;32;34260;-58
2022/06/21 14:30:56;;;;;;;8.48;1.20;;;;;;;25.17;28.99;100078.16;5535084;32;33462;-58
2022/06/21 14:34:08;;;;;;;4.07;1.33;;;;;;;25.15;29.23;100066.78;5548953;32;33679;-58
2022/06/21 14:37:21;;;;;;;4.50;1.48;;;;;;;25.28;28.64;100078.97;5549565;32;34248;-58
2022/06/21 14:40:54;;;;;;;2.78;1.10;;;;;;;25.26;30.17;100070.31;5548037;32;33788;-58
2022/06/21 14:44:02;;;;;;;7.55;1.30;;;;;;;25.23;28.51;100070.31;5548595;32;34245;-58
2022/06/21 14:47:31;;;;;;;1.92;1.10;;;;;;;25.12;28.98;100077.72;5541609;32;33618;-58
2022/06/21 14:50:48;;;;;;;2.08;1.40;;;;;;;25.05;29.55;100078.47;5534092;32;33809;-58
